Tarlton, OH (43156)

5:08 PM EDT on October 01, 2014 (GMT -0400)
APRSWXNET Amanda OH US | Change Station
CLOSE
Current Station
Personal Weather Station
Location: Amanda, OH
Elevation: 1079 ft
Nearby Weather Stations

Elev 1079 ft 39.62 °N, 82.77 °W | Updated 48 minutes ago

Clear
Clear
71 °F
Feels Like 77 °F
N
0
Wind Variable Wind from North
Gusts 0.0 mph

Today
High -- | Low -- °F
--% Chance of Precip.
Yesterday
High -- | Low -- °F
Precip. -- in
7:27 AM 7:13 PM
Waxing Crescent, 51% visible
Pressure 30.00 in
Visibility 10.0 miles
Clouds Clear
Heat Index 77 °F
Dew Point 54 °F
Humidity 54%
Rainfall 0.00 in
Snow Depth Not available.
UV 2 out of 12
Pollen 2.10 out of 12
Ozone Good
PM2.5 Good
Flu Activity Not available.
METAR KLHQ 012053Z AUTO VRB03KT 10SM CLR 22/09 A3000 RMK AO2 SLP157 T02170094 56013

More Conditions Fewer Conditions

Pressure 30.00 in
Visibility 10.0 miles
Clouds Clear
Heat Index 77 °F
Dew Point 54 °F
Humidity 54%
Rainfall 0.00 in
Snow Depth Not available.
UV 2 out of 12
Pollen 2.10 out of 12
Ozone Good
PM2.5 Good
Flu Activity Not available.
METAR KLHQ 012053Z AUTO VRB03KT 10SM CLR 22/09 A3000 RMK AO2 SLP157 T02170094 56013

More Conditions Fewer Conditions

10-Day Weather Forecast

Almanac

Astronomy

Oct. 01, 2014 Rise Set
Actual Time 7:27 AM EDT 7:13 PM EDT
Civil Twilight 7:00 AM EDT 7:40 PM EDT
Nautical Twilight 6:29 AM EDT 8:11 PM EDT
Astronomical Twilight 5:57 AM EDT 8:42 PM EDT
Moon 2:26 PM EDT No Moon Set
Length of Visible Light 12h 39m
Length of Day
11h 46m
Tomorrow will be 2m 33s shorter.
Waxing Crescent, 51% of the Moon is Illuminated
Today
Waxing Crescent
Oct 8
Full
Oct 15
Last Quarter
Oct 23
New
Oct 30
First Quarter

Today's Extremes

State Highs State Lows

Community

WunderPhotos

Upload Photos

1,758,057 photos uploaded!

WunderBlogs® & News

By Dr. Jeff Masters
Director of Meteorology, Weather Underground
By Kari Strenfel
Meteorologist, Weather Underground
By Christopher C. Burt
Weather Historian, Weather Underground
October 1, 2014
October 1, 2014
October 1, 2014

Nearby

Air Quality

  Air Quality AQ Index Pollutant
Yesterday Good
PM2.5
Yesterday Good
OZONE
Current Good
PM2.5
Current Good
OZONE
Wednesday Good
PM2.5
Wednesday Good
OZONE
Thursday Moderate
PM2.5
Thursday Moderate
OZONE
Friday Good
PM2.5
Friday Good
OZONE
Saturday Good
OZONE
Saturday Good
PM2.5
Sunday Good
OZONE
Sunday Good
PM2.5
Monday Good
OZONE
Monday Good
PM2.5

Snow Depth

Station Depth Elevation
No new snow has been reported.

Earthquake Activity

City Distance Mag. Time & Date
No recent earthquake activity has been reported nearby.
Minimum magnitude displayed is 2.5.

Coastal Water Temperatures

Place Temperature
No Stations Reporting

Nearby Weather Stations